Time;durP1;ratioP1;P1;durP2;ratioP2;P2;SDS_P1;SDS_P2;PMS_P1;PMS_P2;Temp;Humidity;BMP_temperature;BMP_pressure;BME280_temperature;BME280_humidity;BME280_pressure;Samples;Min_cycle;Max_cycle;Signal;HPM_P1;HPM_P2
2022/10/06 00:01:26;;;;;;;0.90;0.90;;;;;;;13.67;84.78;96337.44;4393977;32;20196;-62
2022/10/06 00:03:53;;;;;;;0.47;0.47;;;;;;;13.65;84.36;96338.81;4395781;32;20200;-63
2022/10/06 00:06:19;;;;;;;1.73;0.67;;;;;;;13.62;85.24;96342.03;4372474;32;20262;-62
2022/10/06 00:08:46;;;;;;;3.40;0.73;;;;;;;13.68;84.92;96349.69;4377615;32;20351;-62
2022/10/06 00:11:17;;;;;;;0.67;0.67;;;;;;;13.60;84.16;96345.00;4396086;32;20225;-63
2022/10/06 00:13:44;;;;;;;0.20;0.20;;;;;;;13.60;84.41;96342.31;4385444;32;20247;-63
2022/10/06 00:16:16;;;;;;;0.33;0.33;;;;;;;13.63;84.27;96346.28;4375911;32;20198;-62
2022/10/06 00:18:45;;;;;;;0.47;0.47;;;;;;;13.71;84.13;96349.13;4343861;32;20235;-63
2022/10/06 00:21:10;;;;;;;0.40;0.40;;;;;;;13.71;84.35;96348.34;4392655;32;20192;-63
2022/10/06 00:23:39;;;;;;;0.10;0.10;;;;;;;13.68;84.73;96360.38;4389103;32;20195;-63
2022/10/06 00:26:15;;;;;;;0.33;0.33;;;;;;;13.59;85.18;96353.28;4384632;32;20185;-63
2022/10/06 00:28:46;;;;;;;0.83;0.53;;;;;;;13.55;85.60;96352.25;4384889;32;20270;-63
2022/10/06 00:31:14;;;;;;;0.13;0.13;;;;;;;13.52;85.03;96358.94;4384252;32;20196;-63
2022/10/06 00:33:41;;;;;;;0.17;0.17;;;;;;;13.61;85.11;96356.44;4380334;32;20256;-63
2022/10/06 00:36:08;;;;;;;0.20;0.20;;;;;;;13.60;84.67;96347.66;4376994;32;20188;-63
2022/10/06 00:38:34;;;;;;;0.30;0.30;;;;;;;13.62;82.79;96358.84;4373706;32;20202;-63
2022/10/06 00:41:01;;;;;;;0.60;0.60;;;;;;;13.52;83.57;96355.50;4382940;32;20202;-63
2022/10/06 00:43:49;;;;;;;0.43;0.43;;;;;;;13.63;83.43;96356.97;4374386;32;20204;-63
2022/10/06 00:46:35;;;;;;;0.63;0.63;;;;;;;13.51;83.95;96360.03;4370209;32;20282;-63
2022/10/06 00:49:26;;;;;;;1.80;0.47;;;;;;;13.41;83.87;96360.16;4391445;32;20201;-63
2022/10/06 00:52:01;;;;;;;1.13;0.57;;;;;;;13.47;83.55;96363.56;4375232;32;20197;-62
2022/10/06 00:54:30;;;;;;;0.87;0.40;;;;;;;13.44;83.22;96358.81;4385228;32;20191;-63
2022/10/06 00:56:57;;;;;;;0.27;0.27;;;;;;;13.53;83.57;96365.87;4402324;32;20188;-63
2022/10/06 00:59:23;;;;;;;0.43;0.43;;;;;;;13.41;85.16;96368.16;4387419;32;20218;-62
2022/10/06 01:02:20;;;;;;;0.40;0.40;;;;;;;13.39;84.90;96359.66;4386202;32;20188;-63
2022/10/06 01:04:54;;;;;;;0.20;0.20;;;;;;;13.36;85.08;96357.56;4364982;32;20204;-62
2022/10/06 01:07:23;;;;;;;0.10;0.10;;;;;;;13.31;85.49;96361.06;4360757;32;20248;-62
2022/10/06 01:09:51;;;;;;;0.60;0.60;;;;;;;13.34;84.72;96359.72;4339765;32;20211;-63
2022/10/06 01:12:22;;;;;;;0.30;0.30;;;;;;;13.39;84.83;96362.31;4372124;32;20283;-62
2022/10/06 01:14:48;;;;;;;0.30;0.30;;;;;;;13.36;84.59;96362.88;4363581;32;20223;-62
2022/10/06 01:17:31;;;;;;;0.43;0.43;;;;;;;13.38;85.00;96368.72;4384042;32;20184;-62
2022/10/06 01:20:13;;;;;;;0.40;0.40;;;;;;;13.45;84.91;96366.53;4399389;32;20202;-63
2022/10/06 01:22:43;;;;;;;0.43;0.43;;;;;;;13.44;84.18;96361.47;4358638;32;20188;-62
2022/10/06 01:25:15;;;;;;;0.30;0.30;;;;;;;13.41;84.44;96365.50;4383510;32;20198;-63
2022/10/06 01:27:45;;;;;;;0.33;0.33;;;;;;;13.35;85.01;96366.63;4372512;32;20323;-63
2022/10/06 01:30:15;;;;;;;0.50;0.50;;;;;;;13.38;84.95;96363.41;4383146;32;20211;-63
2022/10/06 01:32:44;;;;;;;0.20;0.20;;;;;;;13.41;82.65;96368.97;4371701;32;20196;-63
2022/10/06 01:35:12;;;;;;;0.67;0.67;;;;;;;13.51;81.45;96365.34;4357347;32;20192;-63
2022/10/06 01:37:39;;;;;;;0.20;0.20;;;;;;;13.60;81.23;96376.19;4371732;32;20206;-62
2022/10/06 01:40:06;;;;;;;0.43;0.40;;;;;;;13.65;80.73;96376.94;4390642;32;20245;-62
2022/10/06 01:42:34;;;;;;;0.30;0.30;;;;;;;13.60;80.49;96376.19;4344219;32;20188;-63
2022/10/06 01:45:02;;;;;;;0.60;0.60;;;;;;;13.63;80.59;96370.28;4393471;32;20255;-63
2022/10/06 01:47:28;;;;;;;1.70;0.50;;;;;;;13.57;80.92;96379.44;4365819;32;20258;-63
2022/10/06 01:49:55;;;;;;;0.23;0.23;;;;;;;13.53;81.34;96379.19;4358093;32;20216;-62
2022/10/06 01:52:21;;;;;;;0.20;0.20;;;;;;;13.46;81.78;96384.09;4361156;32;20196;-63
2022/10/06 01:54:48;;;;;;;0.50;0.50;;;;;;;13.42;81.70;96383.09;4402866;32;20195;-62
2022/10/06 01:57:13;;;;;;;0.40;0.40;;;;;;;13.46;81.90;96381.44;4397434;32;20188;-62
2022/10/06 01:59:40;;;;;;;0.03;0.03;;;;;;;13.37;82.65;96381.25;4392237;32;20201;-62
2022/10/06 02:02:08;;;;;;;0.30;0.30;;;;;;;13.28;83.48;96376.84;4387045;32;20198;-62
2022/10/06 02:04:36;;;;;;;0.73;0.53;;;;;;;13.30;83.21;96393.34;4387227;32;20236;-62
2022/10/06 02:07:02;;;;;;;0.40;0.40;;;;;;;13.27;83.00;96385.94;4393764;32;20192;-62
2022/10/06 02:09:28;;;;;;;0.30;0.30;;;;;;;13.26;83.62;96390.47;4373663;32;20207;-63
2022/10/06 02:11:53;;;;;;;0.30;0.30;;;;;;;13.32;83.91;96391.19;4387805;32;20196;-62
2022/10/06 02:14:20;;;;;;;0.67;0.67;;;;;;;13.28;84.36;96390.97;4375607;32;20197;-62
2022/10/06 02:16:47;;;;;;;2.53;0.40;;;;;;;13.23;84.39;96395.56;4391732;32;20285;-62
2022/10/06 02:19:15;;;;;;;0.63;0.53;;;;;;;13.28;83.48;96398.19;4380594;32;20203;-62
2022/10/06 02:21:41;;;;;;;0.73;0.67;;;;;;;13.33;83.22;96395.44;4372138;32;20302;-62
2022/10/06 02:24:08;;;;;;;0.30;0.30;;;;;;;13.31;83.01;96402.91;4374528;32;20188;-62
2022/10/06 02:26:37;;;;;;;0.57;0.57;;;;;;;13.35;82.72;96398.63;4367202;32;20220;-64
2022/10/06 02:29:05;;;;;;;0.07;0.07;;;;;;;13.24;83.67;96402.47;4391383;32;20236;-64
2022/10/06 02:31:32;;;;;;;0.80;0.80;;;;;;;13.18;83.27;96403.59;4390368;32;20189;-63
2022/10/06 02:33:59;;;;;;;0.60;0.60;;;;;;;13.24;83.12;96405.16;4395146;32;20184;-63
2022/10/06 02:36:25;;;;;;;0.47;0.47;;;;;;;13.24;82.96;96405.16;4383255;32;20224;-63
2022/10/06 02:38:51;;;;;;;0.37;0.37;;;;;;;13.26;82.74;96403.78;4367203;32;20191;-62
2022/10/06 02:41:18;;;;;;;0.37;0.37;;;;;;;13.18;83.61;96403.59;4388627;32;25352;-62
2022/10/06 02:43:43;;;;;;;0.50;0.50;;;;;;;13.11;84.19;96408.44;4375662;32;20192;-62
2022/10/06 02:46:15;;;;;;;0.70;0.70;;;;;;;13.04;83.97;96417.56;4393244;32;20190;-62
2022/10/06 02:48:44;;;;;;;0.50;0.50;;;;;;;13.06;84.36;96415.41;4364392;32;20204;-63
2022/10/06 02:51:17;;;;;;;0.70;0.70;;;;;;;13.11;84.48;96419.88;4398216;32;20269;-63
2022/10/06 02:53:44;;;;;;;0.33;0.33;;;;;;;13.07;84.69;96421.53;4380342;32;20224;-62
2022/10/06 02:56:14;;;;;;;1.07;0.47;;;;;;;13.18;84.08;96430.25;4389211;32;20237;-63
2022/10/06 02:58:42;;;;;;;0.63;0.63;;;;;;;13.11;84.56;96427.88;4380046;32;20210;-62
2022/10/06 03:01:16;;;;;;;0.30;0.30;;;;;;;13.13;84.52;96431.06;4323359;32;20208;-62
2022/10/06 03:03:45;;;;;;;0.30;0.30;;;;;;;13.02;84.23;96433.03;4411248;32;20195;-62
2022/10/06 03:06:26;;;;;;;0.20;0.20;;;;;;;13.00;84.93;96434.37;4367433;32;20227;-62
2022/10/06 03:08:57;;;;;;;0.53;0.53;;;;;;;13.08;84.45;96431.91;4396551;32;20213;-62
2022/10/06 03:11:25;;;;;;;0.27;0.27;;;;;;;13.07;84.73;96434.87;4380782;32;20196;-62
2022/10/06 03:13:58;;;;;;;1.40;0.73;;;;;;;13.07;84.86;96445.53;4363477;32;20222;-62
2022/10/06 03:16:32;;;;;;;0.37;0.33;;;;;;;13.10;84.65;96442.28;4364821;32;20258;-62
2022/10/06 03:18:59;;;;;;;0.30;0.30;;;;;;;12.96;84.74;96439.47;4401692;32;20176;-63
2022/10/06 03:21:48;;;;;;;0.87;0.63;;;;;;;12.95;84.44;96443.22;4378421;32;20188;-63
2022/10/06 03:24:14;;;;;;;0.17;0.17;;;;;;;13.09;83.57;96443.38;4391367;32;20184;-62
2022/10/06 03:26:43;;;;;;;0.13;0.13;;;;;;;13.02;83.47;96450.88;4386090;32;20227;-62
2022/10/06 03:29:10;;;;;;;0.27;0.23;;;;;;;13.07;82.93;96451.66;4382626;32;20213;-62
2022/10/06 03:31:38;;;;;;;0.20;0.20;;;;;;;13.20;82.28;96454.75;4383858;32;20189;-62
2022/10/06 03:34:06;;;;;;;0.50;0.50;;;;;;;13.20;82.10;96450.22;4391347;32;20193;-62
2022/10/06 03:36:39;;;;;;;0.10;0.10;;;;;;;13.17;82.29;96456.09;4372516;32;20191;-63
2022/10/06 03:39:07;;;;;;;0.30;0.30;;;;;;;13.17;82.09;96457.97;4392987;32;20237;-63
2022/10/06 03:41:35;;;;;;;0.30;0.30;;;;;;;13.04;82.48;96462.84;4404062;32;20227;-62
2022/10/06 03:44:02;;;;;;;0.47;0.47;;;;;;;13.16;82.13;96461.72;4389575;32;20200;-63
2022/10/06 03:46:31;;;;;;;0.20;0.20;;;;;;;13.09;82.08;96462.78;4375634;32;20180;-63
2022/10/06 03:49:00;;;;;;;0.10;0.10;;;;;;;12.95;82.33;96463.72;4398931;32;20184;-63
2022/10/06 03:51:38;;;;;;;0.40;0.40;;;;;;;13.06;82.29;96470.56;4343554;32;20208;-63
2022/10/06 03:54:09;;;;;;;0.10;0.10;;;;;;;13.12;81.88;96471.28;4397851;32;20191;-62
2022/10/06 03:56:38;;;;;;;0.20;0.20;;;;;;;13.02;82.16;96477.53;4379820;32;20232;-62
2022/10/06 03:59:07;;;;;;;0.93;0.73;;;;;;;13.02;81.95;96469.53;4382243;32;20290;-63
2022/10/06 04:01:43;;;;;;;0.33;0.33;;;;;;;12.89;81.88;96473.63;4381617;32;20183;-62
2022/10/06 04:04:10;;;;;;;0.10;0.10;;;;;;;12.85;82.98;96477.94;4373392;32;20189;-62
2022/10/06 04:06:47;;;;;;;0.40;0.40;;;;;;;12.84;82.45;96478.22;4380905;32;20191;-62
2022/10/06 04:09:13;;;;;;;0.20;0.20;;;;;;;12.92;81.94;96481.06;4391010;32;20204;-62
2022/10/06 04:11:39;;;;;;;0.50;0.43;;;;;;;12.88;82.03;96480.06;4385026;32;20211;-62
2022/10/06 04:14:12;;;;;;;1.13;0.43;;;;;;;12.97;81.53;96483.69;4393836;32;20197;-62
2022/10/06 04:16:47;;;;;;;3.60;0.90;;;;;;;12.74;81.94;96487.84;4407071;32;20209;-63
2022/10/06 04:19:17;;;;;;;0.30;0.30;;;;;;;12.75;83.02;96496.66;4391183;32;20187;-63
2022/10/06 04:21:45;;;;;;;0.53;0.37;;;;;;;12.79;83.07;96499.56;4374401;32;20267;-63
2022/10/06 04:24:16;;;;;;;0.13;0.13;;;;;;;12.68;82.93;96490.81;4372522;32;20270;-62
2022/10/06 04:26:47;;;;;;;0.20;0.20;;;;;;;12.73;82.32;96493.47;4347704;32;20185;-63
2022/10/06 04:29:18;;;;;;;0.27;0.27;;;;;;;12.88;81.91;96489.91;4395123;32;20229;-63
2022/10/06 04:31:45;;;;;;;0.30;0.30;;;;;;;12.79;81.53;96496.88;4398325;32;20210;-62
2022/10/06 04:34:14;;;;;;;0.50;0.50;;;;;;;12.75;81.71;96496.66;4376744;32;20215;-62
2022/10/06 04:36:41;;;;;;;0.37;0.37;;;;;;;12.76;81.54;96502.75;4357055;32;20257;-62
2022/10/06 04:39:10;;;;;;;1.60;0.30;;;;;;;12.79;82.31;96508.34;4360248;32;20195;-63
2022/10/06 04:41:48;;;;;;;0.63;0.63;;;;;;;12.81;82.40;96510.72;4343030;32;20200;-62
2022/10/06 04:44:13;;;;;;;0.97;0.97;;;;;;;12.80;81.90;96509.94;4384936;32;20241;-62
2022/10/06 04:46:41;;;;;;;0.63;0.57;;;;;;;12.85;81.40;96507.22;4369653;32;20200;-62
2022/10/06 04:49:08;;;;;;;0.50;0.50;;;;;;;12.88;81.72;96512.00;4391741;32;20247;-62
2022/10/06 04:51:35;;;;;;;0.43;0.43;;;;;;;12.88;81.47;96516.53;4369970;32;20192;-62
2022/10/06 04:54:01;;;;;;;0.37;0.37;;;;;;;12.88;80.92;96514.66;4389398;32;20227;-62
2022/10/06 04:56:31;;;;;;;0.40;0.40;;;;;;;12.89;80.64;96513.56;4358962;32;20261;-63
2022/10/06 04:58:57;;;;;;;0.37;0.37;;;;;;;12.82;80.96;96518.44;4375653;32;20188;-62
2022/10/06 05:01:35;;;;;;;0.83;0.17;;;;;;;12.89;80.67;96524.22;4387789;32;20202;-62
2022/10/06 05:04:02;;;;;;;0.10;0.10;;;;;;;12.88;81.21;96521.88;4376560;32;20192;-62
2022/10/06 05:06:37;;;;;;;0.13;0.13;;;;;;;12.92;80.38;96528.19;4366485;32;20188;-62
2022/10/06 05:09:08;;;;;;;0.40;0.40;;;;;;;12.97;80.24;96531.63;4397272;32;20191;-62
2022/10/06 05:11:37;;;;;;;0.90;0.87;;;;;;;12.90;80.05;96531.16;4374733;32;20304;-62
2022/10/06 05:14:05;;;;;;;4.00;0.80;;;;;;;12.78;80.88;96528.03;4345712;32;20192;-62
2022/10/06 05:16:42;;;;;;;1.90;1.00;;;;;;;12.78;81.47;96533.37;4393205;32;20188;-62
2022/10/06 05:19:10;;;;;;;0.73;0.70;;;;;;;12.91;80.88;96531.94;4405984;32;20187;-62
2022/10/06 05:21:36;;;;;;;0.30;0.30;;;;;;;12.84;81.33;96528.81;4397898;32;20176;-62
2022/10/06 05:24:05;;;;;;;0.50;0.50;;;;;;;12.74;81.48;96529.66;4362956;32;20234;-62
2022/10/06 05:26:35;;;;;;;0.73;0.60;;;;;;;12.80;81.85;96536.56;4346283;32;20231;-62
2022/10/06 05:29:06;;;;;;;0.60;0.60;;;;;;;12.94;80.45;96536.72;4386617;32;20219;-62
2022/10/06 05:31:37;;;;;;;1.60;0.50;;;;;;;12.85;80.74;96541.84;4342576;32;20212;-62
2022/10/06 05:34:05;;;;;;;1.23;0.67;;;;;;;12.84;80.72;96550.91;4383337;32;20220;-62
2022/10/06 05:36:35;;;;;;;1.93;0.73;;;;;;;12.86;80.92;96548.78;4337784;32;20179;-62
2022/10/06 05:39:07;;;;;;;0.10;0.10;;;;;;;12.86;81.39;96555.97;4367047;32;20202;-62
2022/10/06 05:41:36;;;;;;;0.77;0.77;;;;;;;12.87;81.10;96557.56;4389429;32;20196;-62
2022/10/06 05:44:04;;;;;;;0.50;0.50;;;;;;;12.89;81.26;96563.37;4381675;32;20231;-62
2022/10/06 05:46:32;;;;;;;0.37;0.33;;;;;;;12.88;81.39;96570.59;4375500;32;20200;-62
2022/10/06 05:49:05;;;;;;;0.23;0.23;;;;;;;12.87;81.15;96571.66;4376523;32;20184;-62
2022/10/06 05:51:32;;;;;;;0.40;0.40;;;;;;;12.79;80.97;96580.25;4399230;32;20212;-62
2022/10/06 05:53:59;;;;;;;2.37;1.83;;;;;;;12.65;82.14;96571.28;4393035;32;20245;-55
2022/10/06 05:56:30;;;;;;;0.93;0.93;;;;;;;14.41;100.00;96570.78;4387391;32;20226;-56
2022/10/06 05:58:57;;;;;;;0.43;0.43;;;;;;;14.79;100.00;96573.47;4379549;32;20184;-54
2022/10/06 06:01:30;;;;;;;0.63;0.63;;;;;;;15.00;92.97;96580.09;4392213;32;20181;-54
2022/10/06 06:03:59;;;;;;;0.30;0.30;;;;;;;15.17;85.10;96576.94;4368812;32;20241;-53
2022/10/06 06:06:35;;;;;;;0.37;0.37;;;;;;;15.68;80.31;96586.81;4350816;32;20200;-55
2022/10/06 06:09:10;;;;;;;0.40;0.40;;;;;;;15.82;78.00;96588.41;4398750;32;20214;-54
2022/10/06 06:11:43;;;;;;;0.73;0.73;;;;;;;15.97;75.94;96591.94;4366417;32;20294;-54
2022/10/06 06:14:13;;;;;;;0.30;0.30;;;;;;;16.14;76.59;96600.97;4352994;32;20181;-55
2022/10/06 06:16:41;;;;;;;0.33;0.33;;;;;;;16.21;74.23;96603.22;4374234;32;20210;-54
2022/10/06 06:19:11;;;;;;;0.37;0.37;;;;;;;16.25;73.35;96601.53;4374274;32;20205;-54
2022/10/06 06:21:37;;;;;;;0.57;0.57;;;;;;;16.24;72.29;96605.31;4408975;32;20192;-51
2022/10/06 06:24:08;;;;;;;0.93;0.93;;;;;;;16.28;72.50;96608.19;4388213;32;20202;-54
2022/10/06 06:26:37;;;;;;;0.53;0.53;;;;;;;16.16;70.66;96614.06;4389438;32;20255;-51
2022/10/06 06:29:07;;;;;;;0.70;0.70;;;;;;;16.30;72.02;96622.88;4379250;32;20188;-52
2022/10/06 06:31:36;;;;;;;0.90;0.90;;;;;;;16.35;71.87;96622.00;4386130;32;20253;-52
2022/10/06 06:34:05;;;;;;;0.60;0.60;;;;;;;16.37;71.53;96631.31;4382172;32;20184;-52
2022/10/06 06:36:40;;;;;;;0.40;0.40;;;;;;;16.38;71.85;96632.13;4378967;32;20192;-53
2022/10/06 06:39:09;;;;;;;0.40;0.40;;;;;;;16.40;71.20;96636.09;4352065;32;20225;-53
2022/10/06 06:41:37;;;;;;;0.87;0.87;;;;;;;16.38;71.38;96632.13;4382482;32;20241;-53
2022/10/06 06:44:14;;;;;;;0.40;0.40;;;;;;;16.35;71.50;96638.84;4356029;32;20184;-53
2022/10/06 06:46:45;;;;;;;0.23;0.23;;;;;;;16.36;71.48;96640.44;4399876;32;20254;-61
2022/10/06 06:49:12;;;;;;;0.63;0.63;;;;;;;16.12;70.14;96645.97;4380301;32;20231;-63
2022/10/06 06:51:42;;;;;;;0.50;0.50;;;;;;;15.51;71.68;96650.75;4387779;32;20215;-64
2022/10/06 06:54:11;;;;;;;0.50;0.50;;;;;;;14.82;73.38;96654.91;4383391;32;20232;-63
2022/10/06 06:56:38;;;;;;;0.30;0.30;;;;;;;14.42;76.15;96652.47;4364124;32;20184;-64
2022/10/06 06:59:10;;;;;;;0.33;0.33;;;;;;;14.29;77.25;96660.34;4397822;32;20191;-64
2022/10/06 07:01:43;;;;;;;0.60;0.60;;;;;;;14.19;77.54;96663.09;4397489;32;20202;-64
2022/10/06 07:04:09;;;;;;;0.30;0.30;;;;;;;13.98;78.21;96662.50;4380450;32;20256;-64
2022/10/06 07:06:38;;;;;;;0.53;0.53;;;;;;;13.93;79.12;96676.69;4398472;32;20221;-61
2022/10/06 07:09:10;;;;;;;0.47;0.47;;;;;;;13.90;79.13;96676.47;4382352;32;20192;-61
2022/10/06 07:11:39;;;;;;;0.77;0.63;;;;;;;13.89;79.04;96672.22;4405693;32;20234;-62
2022/10/06 07:14:08;;;;;;;6.47;0.97;;;;;;;13.88;79.56;96673.28;4345539;32;20188;-62
2022/10/06 07:25:24;;;;;;;0.17;0.17;;;;;;;13.94;78.96;96685.47;4373859;32;20188;-61
2022/10/06 07:27:51;;;;;;;2.47;0.70;;;;;;;14.00;78.22;96693.16;4355685;32;20192;-61
2022/10/06 07:30:25;;;;;;;0.83;0.83;;;;;;;14.09;77.92;96704.03;4390820;32;20202;-61
2022/10/06 07:33:14;;;;;;;0.70;0.70;;;;;;;14.20;77.06;96702.06;4367401;32;20238;-65
2022/10/06 07:35:40;;;;;;;1.80;0.73;;;;;;;14.26;77.44;96700.94;4395909;32;20229;-62
2022/10/06 07:38:06;;;;;;;8.50;3.13;;;;;;;14.30;77.40;96697.44;4373247;32;20214;-61
2022/10/06 07:40:34;;;;;;;1.67;1.57;;;;;;;14.41;78.27;96698.94;4368365;32;20193;-62
2022/10/06 07:43:01;;;;;;;1.43;1.07;;;;;;;14.48;77.26;96703.94;4382346;32;20200;-64
2022/10/06 07:45:40;;;;;;;1.03;0.83;;;;;;;14.54;77.16;96702.81;4377167;32;20207;-61
2022/10/06 07:48:17;;;;;;;1.47;1.07;;;;;;;14.61;77.15;96702.47;4396159;32;20250;-61
2022/10/06 07:50:46;;;;;;;0.57;0.57;;;;;;;14.71;76.16;96703.16;4381205;32;20326;-62
2022/10/06 07:53:15;;;;;;;2.67;1.37;;;;;;;14.80;75.75;96700.63;4369269;32;20229;-62
2022/10/06 07:55:45;;;;;;;0.77;0.50;;;;;;;14.89;75.84;96708.81;4375541;32;20204;-62
2022/10/06 07:58:18;;;;;;;0.63;0.63;;;;;;;14.99;75.72;96714.81;4377709;32;20233;-62
2022/10/06 08:00:47;;;;;;;3.97;2.17;;;;;;;15.15;74.51;96709.28;4390420;32;23497;-52
2022/10/06 08:03:16;;;;;;;0.70;0.70;;;;;;;16.56;88.98;96713.47;4385646;32;20283;-53
2022/10/06 08:06:04;;;;;;;0.90;0.90;;;;;;;17.80;78.18;96721.09;4379352;32;20188;-50
2022/10/06 08:08:37;;;;;;;2.47;1.10;;;;;;;18.51;72.21;96719.28;4372904;32;20184;-49
2022/10/06 08:11:07;;;;;;;6.60;1.13;;;;;;;18.70;70.08;96731.75;4380382;32;20203;-52
2022/10/06 08:13:36;;;;;;;0.57;0.57;;;;;;;19.05;67.49;96725.38;4388075;32;20260;-51
2022/10/06 08:16:16;;;;;;;1.73;1.63;;;;;;;19.42;65.42;96726.72;4388287;32;20225;-52
2022/10/06 08:18:43;;;;;;;8.30;1.03;;;;;;;19.47;64.02;96734.66;4357204;32;20326;-53
2022/10/06 08:21:12;;;;;;;0.70;0.70;;;;;;;19.55;64.53;96725.78;4388711;32;20175;-63
2022/10/06 08:23:43;;;;;;;0.57;0.57;;;;;;;19.61;61.71;96729.13;4366768;32;20193;-62
2022/10/06 08:26:22;;;;;;;0.43;0.43;;;;;;;18.82;60.59;96734.62;4385876;32;20184;-62
2022/10/06 08:28:56;;;;;;;0.43;0.43;;;;;;;18.23;62.72;96738.59;4374805;32;20207;-62
2022/10/06 08:31:26;;;;;;;0.30;0.30;;;;;;;17.63;65.96;96741.59;4389489;32;20201;-61
2022/10/06 08:33:57;;;;;;;3.40;0.80;;;;;;;17.26;67.95;96742.66;4381453;32;20244;-62
2022/10/06 08:36:27;;;;;;;0.60;0.60;;;;;;;17.14;68.56;96746.66;4402545;32;20226;-63
2022/10/06 08:38:53;;;;;;;0.93;0.93;;;;;;;17.18;67.45;96744.97;4402722;32;20180;-61
2022/10/06 08:41:34;;;;;;;0.30;0.30;;;;;;;17.11;68.33;96752.63;4368043;32;20191;-61
2022/10/06 08:44:44;;;;;;;1.80;0.63;;;;;;;17.00;69.24;96750.44;4390691;32;20188;-62
2022/10/06 08:47:18;;;;;;;0.37;0.37;;;;;;;16.94;70.77;96751.63;4356619;32;20336;-62
2022/10/06 08:49:49;;;;;;;0.30;0.30;;;;;;;16.91;70.03;96752.22;4315327;32;20327;-64
2022/10/06 08:53:02;;;;;;;1.00;1.00;;;;;;;16.88;70.92;96750.94;4365989;32;20460;-63
2022/10/06 08:55:46;;;;;;;0.67;0.60;;;;;;;16.93;70.48;96750.03;4371160;32;20321;-63
2022/10/06 08:58:44;;;;;;;0.43;0.43;;;;;;;17.08;70.25;96758.56;4349243;32;20200;-63
2022/10/06 09:01:22;;;;;;;1.03;1.03;;;;;;;17.11;69.83;96757.19;4366683;32;20322;-62
2022/10/06 09:03:53;;;;;;;1.03;1.03;;;;;;;17.11;69.77;96760.66;4383405;32;20290;-62
2022/10/06 09:06:28;;;;;;;0.40;0.40;;;;;;;17.12;69.51;96748.84;4355262;32;20287;-61
2022/10/06 09:09:06;;;;;;;0.50;0.50;;;;;;;17.20;71.00;96762.66;4359000;32;20184;-62
2022/10/06 09:12:06;;;;;;;0.97;0.57;;;;;;;17.18;69.53;96757.59;4373451;32;20220;-62
2022/10/06 09:15:18;;;;;;;0.53;0.53;;;;;;;17.30;68.77;96749.81;4390262;32;20200;-62
2022/10/06 09:17:54;;;;;;;0.70;0.70;;;;;;;17.23;70.38;96759.38;4312273;32;20190;-64
2022/10/06 09:20:54;;;;;;;0.47;0.47;;;;;;;17.37;69.03;96744.03;4341906;32;20252;-62
2022/10/06 09:26:11;;;;;;;0.87;0.87;;;;;;;17.30;69.75;96752.50;4378402;32;20225;-64
2022/10/06 09:28:47;;;;;;;0.47;0.47;;;;;;;17.29;70.06;96753.59;4375958;32;20196;-64
2022/10/06 09:31:33;;;;;;;0.67;0.67;;;;;;;17.35;69.83;96759.66;4384313;32;20226;-63
2022/10/06 09:34:23;;;;;;;1.00;0.70;;;;;;;17.31;69.98;96758.66;4365938;32;20203;-63
2022/10/06 09:37:04;;;;;;;8.23;0.70;;;;;;;17.38;70.42;96753.69;4342053;32;20229;-65
2022/10/06 09:39:49;;;;;;;0.80;0.80;;;;;;;17.54;68.91;96752.25;4349832;32;20226;-64
2022/10/06 09:42:35;;;;;;;0.70;0.70;;;;;;;17.48;68.96;96764.97;4369215;32;20227;-62
2022/10/06 09:45:23;;;;;;;0.87;0.87;;;;;;;17.55;69.48;96756.53;4310628;32;20185;-62
2022/10/06 09:47:51;;;;;;;3.67;1.00;;;;;;;17.55;69.49;96753.03;4375118;32;20218;-61
2022/10/06 09:50:22;;;;;;;0.93;0.93;;;;;;;17.56;70.99;96754.63;4370460;32;20231;-62
2022/10/06 09:53:10;;;;;;;0.73;0.73;;;;;;;17.57;69.95;96758.91;4364262;32;20219;-62
2022/10/06 09:55:37;;;;;;;0.60;0.60;;;;;;;17.53;70.42;96761.41;4368677;32;20257;-62
2022/10/06 09:58:38;;;;;;;0.47;0.47;;;;;;;17.63;69.79;96747.75;4375107;32;20199;-62
2022/10/06 10:01:15;;;;;;;0.37;0.37;;;;;;;17.81;69.26;96752.22;4376259;32;20196;-61
2022/10/06 10:03:52;;;;;;;7.17;1.63;;;;;;;17.80;69.33;96752.50;4372798;32;20188;-62
2022/10/06 10:06:33;;;;;;;0.93;0.93;;;;;;;17.86;69.55;96751.31;4361362;32;20203;-62
2022/10/06 10:09:28;;;;;;;0.77;0.77;;;;;;;17.97;69.52;96757.22;4358776;32;20184;-63
2022/10/06 10:12:27;;;;;;;0.60;0.60;;;;;;;17.91;69.44;96745.00;4341260;32;20189;-62
2022/10/06 10:15:52;;;;;;;0.67;0.67;;;;;;;17.91;70.41;96753.84;4338826;32;20197;-62
2022/10/06 10:18:25;;;;;;;0.50;0.50;;;;;;;17.96;70.52;96748.34;4365968;32;20319;-62
2022/10/06 10:20:54;;;;;;;1.17;0.97;;;;;;;18.12;70.40;96748.78;4351106;32;20219;-62
2022/10/06 10:23:42;;;;;;;2.87;1.10;;;;;;;18.14;70.01;96751.97;4343295;32;20208;-63
2022/10/06 10:26:38;;;;;;;4.53;0.80;;;;;;;18.04;70.85;96744.16;4336070;32;20210;-62
2022/10/06 10:29:57;;;;;;;0.87;0.87;;;;;;;17.99;71.94;96746.97;4373653;32;20235;-62
2022/10/06 10:33:10;;;;;;;0.63;0.63;;;;;;;18.06;71.44;96744.66;4325627;32;20211;-62
2022/10/06 10:35:45;;;;;;;1.40;1.00;;;;;;;18.05;71.88;96754.59;4333154;32;20252;-62
2022/10/06 10:38:23;;;;;;;0.83;0.83;;;;;;;18.16;71.26;96747.88;4351485;32;20197;-62
2022/10/06 10:41:12;;;;;;;1.03;1.03;;;;;;;18.26;71.45;96757.59;4340829;32;20218;-62
2022/10/06 10:43:55;;;;;;;0.97;0.97;;;;;;;18.27;71.13;96753.81;4321043;32;20208;-62
2022/10/06 10:46:34;;;;;;;0.63;0.63;;;;;;;18.37;71.88;96750.84;4383110;32;20199;-61
2022/10/06 10:49:18;;;;;;;1.87;1.77;;;;;;;18.49;70.99;96755.66;4382141;32;20259;-62
2022/10/06 10:51:54;;;;;;;1.20;1.13;;;;;;;18.59;69.96;96758.09;4375649;32;20271;-62
2022/10/06 10:54:54;;;;;;;1.00;1.00;;;;;;;18.59;70.27;96751.91;4363686;32;20218;-62
2022/10/06 10:57:39;;;;;;;6.23;1.90;;;;;;;18.55;70.32;96752.50;4352230;32;20289;-62
2022/10/06 11:00:21;;;;;;;7.90;1.13;;;;;;;18.60;70.53;96754.31;4329155;32;20306;-62
2022/10/06 11:02:48;;;;;;;0.43;0.43;;;;;;;18.62;70.43;96751.31;4363372;32;20324;-62
2022/10/06 11:05:55;;;;;;;3.23;1.20;;;;;;;18.66;70.12;96757.66;4386071;32;20213;-62
2022/10/06 11:08:48;;;;;;;0.97;0.83;;;;;;;18.64;70.67;96760.66;4360029;32;20200;-63
2022/10/06 11:11:36;;;;;;;0.73;0.73;;;;;;;18.58;71.22;96764.56;4370768;32;20243;-62
2022/10/06 11:14:08;;;;;;;0.50;0.50;;;;;;;18.72;70.48;96761.78;4383414;32;20259;-63
2022/10/06 11:16:36;;;;;;;0.87;0.87;;;;;;;18.51;71.95;96751.53;4348504;32;20180;-63
2022/10/06 11:19:26;;;;;;;0.60;0.60;;;;;;;18.53;72.48;96752.03;4384208;32;20251;-63
2022/10/06 11:22:19;;;;;;;0.83;0.83;;;;;;;18.67;72.71;96749.31;4372996;32;20223;-62
2022/10/06 11:25:29;;;;;;;0.97;0.97;;;;;;;18.68;73.18;96748.19;4350618;32;20210;-63
2022/10/06 11:28:02;;;;;;;0.77;0.77;;;;;;;18.71;72.88;96755.63;4353400;32;20196;-62
2022/10/06 11:30:32;;;;;;;2.67;1.20;;;;;;;18.58;73.30;96750.31;4368731;32;20207;-64
2022/10/06 11:33:23;;;;;;;2.13;2.03;;;;;;;18.55;73.21;96752.50;4374343;32;20197;-62
2022/10/06 11:35:54;;;;;;;2.73;1.77;;;;;;;18.61;73.62;96747.03;4366873;32;20202;-63
2022/10/06 11:38:39;;;;;;;1.30;1.13;;;;;;;18.50;73.95;96749.16;4361884;32;20250;-64
2022/10/06 11:41:20;;;;;;;2.83;2.00;;;;;;;18.51;74.41;96740.00;4349217;32;20200;-63
2022/10/06 11:44:12;;;;;;;1.13;0.80;;;;;;;18.49;74.13;96743.03;4338575;32;20184;-63
2022/10/06 11:46:59;;;;;;;1.60;1.50;;;;;;;18.45;74.53;96742.03;4370539;32;20185;-63
2022/10/06 11:49:31;;;;;;;1.57;1.27;;;;;;;18.48;73.87;96746.00;4357412;32;20203;-63
2022/10/06 11:52:14;;;;;;;1.03;1.03;;;;;;;18.47;74.16;96734.47;4354845;32;20191;-62
2022/10/06 11:55:06;;;;;;;1.43;1.27;;;;;;;18.43;74.21;96730.81;4364555;32;20213;-62
2022/10/06 11:57:53;;;;;;;1.40;1.03;;;;;;;18.47;74.33;96736.38;4351865;32;20188;-63
2022/10/06 12:00:45;;;;;;;1.57;1.30;;;;;;;18.39;75.14;96726.34;4365196;32;20208;-63
2022/10/06 12:03:45;;;;;;;0.60;0.60;;;;;;;18.33;75.31;96732.94;4386615;32;20181;-65
2022/10/06 12:06:47;;;;;;;1.90;0.93;;;;;;;18.29;75.04;96723.94;4384595;32;20259;-63
2022/10/06 12:09:50;;;;;;;1.83;1.73;;;;;;;18.41;74.93;96721.47;4353921;32;20187;-62
2022/10/06 12:12:27;;;;;;;0.63;0.63;;;;;;;18.50;74.07;96723.06;4319787;32;20209;-62
2022/10/06 12:15:21;;;;;;;0.63;0.63;;;;;;;18.62;74.03;96727.91;4324972;32;20193;-63
2022/10/06 12:18:26;;;;;;;0.93;0.93;;;;;;;18.42;75.95;96723.06;4343382;32;20269;-62
2022/10/06 12:21:34;;;;;;;0.83;0.83;;;;;;;18.52;75.21;96714.69;4319624;32;20222;-62